createdAt,value
2022-11-22T00:02:02.136Z,-0.60
2022-11-22T00:07:10.590Z,-0.60
2022-11-22T00:12:18.981Z,-0.60
2022-11-22T00:17:25.104Z,-0.60
2022-11-22T00:22:44.193Z,-0.60
2022-11-22T00:27:50.434Z,-0.60
2022-11-22T00:33:01.145Z,-0.60
2022-11-22T00:38:06.391Z,-0.60
2022-11-22T00:43:17.552Z,-0.60
2022-11-22T00:48:26.080Z,-0.60
2022-11-22T00:53:32.856Z,-0.60
2022-11-22T00:58:38.528Z,-0.60
2022-11-22T01:03:45.130Z,-0.60
2022-11-22T01:08:51.258Z,-0.60
2022-11-22T01:14:01.847Z,-0.60
2022-11-22T01:19:09.334Z,-0.60
2022-11-22T01:24:15.941Z,-0.60
2022-11-22T01:29:25.760Z,-0.60
2022-11-22T01:34:35.215Z,-0.60
2022-11-22T01:39:43.725Z,-0.60
2022-11-22T01:44:51.863Z,-0.70
2022-11-22T01:50:01.674Z,-0.70
2022-11-22T01:55:16.871Z,-0.60
2022-11-22T02:00:28.940Z,-0.60
2022-11-22T02:05:40.062Z,-0.60
2022-11-22T02:10:50.150Z,-0.60
2022-11-22T02:15:56.996Z,-0.80
2022-11-22T02:21:11.313Z,-0.80
2022-11-22T02:26:17.853Z,-0.90
2022-11-22T02:31:46.790Z,-0.80
2022-11-22T02:36:58.045Z,-0.80
2022-11-22T02:42:07.288Z,-1.00
2022-11-22T02:47:16.134Z,-1.00
2022-11-22T02:52:23.600Z,-1.00
2022-11-22T02:57:34.822Z,-1.10
2022-11-22T03:02:42.790Z,-1.10
2022-11-22T03:07:52.144Z,-1.10
2022-11-22T03:13:00.786Z,-1.10
2022-11-22T03:18:06.626Z,-1.10
2022-11-22T03:23:11.880Z,-1.10
2022-11-22T03:28:17.195Z,-1.10
2022-11-22T03:33:22.430Z,-1.10
2022-11-22T03:38:27.799Z,-1.10
2022-11-22T03:43:34.663Z,-1.10
2022-11-22T03:48:40.331Z,-1.00
2022-11-22T03:53:45.676Z,-1.00
2022-11-22T03:58:51.366Z,-1.00
2022-11-22T04:03:56.712Z,-1.00
2022-11-22T04:09:02.369Z,-1.10
2022-11-22T04:14:25.854Z,-1.10
2022-11-22T04:19:31.365Z,-1.00
2022-11-22T04:24:50.516Z,-1.00
2022-11-22T04:29:55.856Z,-1.00
2022-11-22T04:35:01.152Z,-1.00
2022-11-22T04:40:07.098Z,-1.00
2022-11-22T04:45:12.389Z,-1.10
2022-11-22T04:50:36.260Z,-1.10
2022-11-22T04:55:41.641Z,-1.10
2022-11-22T05:00:47.049Z,-1.00
2022-11-22T05:05:52.560Z,-1.10
2022-11-22T05:10:57.893Z,-1.10
2022-11-22T05:16:04.608Z,-1.00
2022-11-22T05:21:13.875Z,-1.00
2022-11-22T05:26:25.398Z,-1.00
2022-11-22T05:31:48.222Z,-1.00
2022-11-22T05:36:56.355Z,-1.00
2022-11-22T05:42:15.104Z,-0.90
2022-11-22T05:53:20.214Z,-0.90
2022-11-22T05:58:30.361Z,-0.90
2022-11-22T06:03:36.837Z,-0.80
2022-11-22T06:08:48.671Z,-0.80
2022-11-22T06:13:57.568Z,-0.80
2022-11-22T06:19:03.052Z,-0.80
2022-11-22T06:24:09.125Z,-0.80
2022-11-22T06:29:14.554Z,-0.80
2022-11-22T06:34:25.898Z,-0.80
2022-11-22T06:39:33.508Z,-0.80
2022-11-22T06:44:39.038Z,-0.80
2022-11-22T06:49:46.138Z,-0.70
2022-11-22T06:54:51.690Z,-0.70
2022-11-22T06:59:57.527Z,-0.70
2022-11-22T07:05:24.699Z,-0.60
2022-11-22T07:10:18.062Z,-0.60
2022-11-22T07:15:25.619Z,-0.50
2022-11-22T07:20:30.993Z,-0.50
2022-11-22T07:25:36.384Z,-0.50
2022-11-22T07:30:44.411Z,-0.40
2022-11-22T07:35:50.900Z,-0.40
2022-11-22T07:40:56.264Z,-0.40
2022-11-22T07:46:06.571Z,-0.30
2022-11-22T07:51:11.842Z,-0.20
2022-11-22T07:56:17.207Z,-0.10
2022-11-22T08:01:24.161Z,0.10
2022-11-22T08:06:30.755Z,0.20
2022-11-22T08:11:37.364Z,0.20
2022-11-22T08:16:42.883Z,0.30
2022-11-22T08:21:53.927Z,0.50
2022-11-22T08:27:02.084Z,0.60
2022-11-22T08:32:07.466Z,0.50
2022-11-22T08:37:12.778Z,0.60
2022-11-22T08:42:18.125Z,0.60
2022-11-22T08:47:23.493Z,0.50
2022-11-22T08:52:28.917Z,0.50
2022-11-22T08:57:34.218Z,0.60
2022-11-22T09:02:39.565Z,0.60
2022-11-22T09:12:53.120Z,0.50
2022-11-22T09:18:04.998Z,0.40
2022-11-22T09:23:12.859Z,0.60
2022-11-22T09:28:19.401Z,0.60
2022-11-22T09:33:24.788Z,0.60
2022-11-22T09:38:31.301Z,0.60
2022-11-22T09:44:07.783Z,0.80
2022-11-22T09:49:39.048Z,0.70
2022-11-22T09:55:07.332Z,0.70
2022-11-22T10:00:29.148Z,0.70
2022-11-22T10:05:42.137Z,0.60
2022-11-22T10:11:03.008Z,0.50
2022-11-22T10:16:26.051Z,0.70
2022-11-22T10:21:32.760Z,0.60
2022-11-22T10:26:42.498Z,0.70
2022-11-22T10:32:05.523Z,0.70
2022-11-22T10:37:32.275Z,0.80
2022-11-22T11:13:48.387Z,1.20
2022-11-22T11:25:00.576Z,1.20
2022-11-22T11:30:33.608Z,1.30
2022-11-22T11:36:44.337Z,1.10
2022-11-22T11:42:35.655Z,1.00
2022-11-22T11:53:28.499Z,1.10
2022-11-22T12:04:21.185Z,1.20
2022-11-22T12:09:50.387Z,1.20
2022-11-22T12:16:12.653Z,1.20
2022-11-22T12:22:07.224Z,1.20
2022-11-22T12:33:35.699Z,1.20
2022-11-22T12:38:52.290Z,1.30
2022-11-22T12:44:26.102Z,1.30
2022-11-22T13:01:36.991Z,1.30
2022-11-22T13:07:07.982Z,1.30
2022-11-22T13:17:51.468Z,1.30
2022-11-22T13:23:32.538Z,1.20
2022-11-22T13:28:41.704Z,1.20
2022-11-22T13:39:48.105Z,1.20
2022-11-22T13:45:20.365Z,1.20
2022-11-22T13:50:57.932Z,1.20
2022-11-22T13:56:31.752Z,1.20
2022-11-22T14:01:52.944Z,1.20
2022-11-22T14:07:26.315Z,1.20
2022-11-22T14:13:37.075Z,1.20
2022-11-22T14:19:13.654Z,1.20
2022-11-22T14:24:51.902Z,1.20
2022-11-22T14:30:54.541Z,1.20
2022-11-22T14:36:11.989Z,1.20
2022-11-22T14:41:43.312Z,1.20
2022-11-22T14:47:05.933Z,1.20
2022-11-22T14:52:32.042Z,1.20
2022-11-22T14:57:53.362Z,1.30
2022-11-22T15:09:13.831Z,1.30
2022-11-22T15:09:52.827Z,1.30
2022-11-22T16:00:18.158Z,1.40
2022-11-22T16:06:07.266Z,1.40
2022-11-22T16:16:43.302Z,1.40
2022-11-22T16:33:29.825Z,1.50
2022-11-22T16:38:42.767Z,1.50
2022-11-22T16:43:59.966Z,1.50
2022-11-22T16:54:51.077Z,1.50
2022-11-22T17:05:28.225Z,1.50
2022-11-22T17:10:33.843Z,1.50
2022-11-22T17:15:43.009Z,1.50
2022-11-22T17:20:51.026Z,1.60
2022-11-22T17:25:58.196Z,1.60
2022-11-22T17:31:07.235Z,1.60
2022-11-22T17:36:35.404Z,1.60
2022-11-22T17:41:41.134Z,1.60
2022-11-22T17:46:47.689Z,1.60
2022-11-22T17:51:53.114Z,1.60
2022-11-22T17:56:59.846Z,1.60
2022-11-22T18:02:07.404Z,1.60
2022-11-22T18:13:19.537Z,1.50
2022-11-22T18:18:03.063Z,1.60
2022-11-22T18:23:08.328Z,1.60
2022-11-22T18:28:13.676Z,1.60
2022-11-22T18:33:19.150Z,1.60
2022-11-22T18:38:24.521Z,1.50
2022-11-22T18:43:30.536Z,1.60
2022-11-22T18:48:36.990Z,1.50
2022-11-22T18:53:43.127Z,1.50
2022-11-22T18:58:50.585Z,1.50
2022-11-22T19:03:55.883Z,1.50
2022-11-22T19:09:02.827Z,1.50
2022-11-22T19:14:08.895Z,1.50
2022-11-22T19:19:14.341Z,1.50
2022-11-22T19:24:26.578Z,1.50
2022-11-22T19:29:31.755Z,1.50
2022-11-22T19:34:44.360Z,1.50
2022-11-22T19:39:55.932Z,1.50
2022-11-22T19:45:02.549Z,1.40
2022-11-22T19:50:09.253Z,1.50
2022-11-22T19:55:14.657Z,1.40
2022-11-22T20:00:19.998Z,1.50
2022-11-22T20:05:26.756Z,1.40
2022-11-22T20:10:32.838Z,1.40
2022-11-22T20:15:37.981Z,1.40
2022-11-22T20:20:43.325Z,1.40
2022-11-22T20:25:48.606Z,1.40
2022-11-22T20:30:56.831Z,1.50
2022-11-22T20:36:11.098Z,1.40
2022-11-22T20:41:19.305Z,1.40
2022-11-22T20:46:36.483Z,1.40
2022-11-22T20:51:43.361Z,1.50
2022-11-22T20:56:51.187Z,1.40
2022-11-22T21:01:57.750Z,1.40
2022-11-22T21:07:04.714Z,1.40
2022-11-22T21:12:10.129Z,1.40
2022-11-22T21:17:42.002Z,1.40
2022-11-22T21:22:31.892Z,1.40
2022-11-22T21:27:36.097Z,1.40
2022-11-22T21:32:41.405Z,1.40
2022-11-22T21:37:46.696Z,1.50
2022-11-22T21:42:51.825Z,1.50
2022-11-22T21:47:57.057Z,1.50
2022-11-22T21:53:02.456Z,1.50
2022-11-22T21:58:09.118Z,1.50
2022-11-22T22:03:14.630Z,1.40
2022-11-22T22:08:21.122Z,1.40
2022-11-22T22:13:26.648Z,1.50
2022-11-22T22:18:35.914Z,1.50
2022-11-22T22:23:42.947Z,1.50
2022-11-22T22:28:48.228Z,1.50
2022-11-22T22:33:56.248Z,1.40
2022-11-22T22:39:01.643Z,1.40
2022-11-22T22:44:06.891Z,1.50
2022-11-22T22:49:12.185Z,1.50
2022-11-22T22:54:17.395Z,1.50
2022-11-22T22:59:22.663Z,1.50
2022-11-22T23:04:27.938Z,1.60
2022-11-22T23:09:33.422Z,1.50
2022-11-22T23:14:40.074Z,1.50
2022-11-22T23:19:46.648Z,1.50
2022-11-22T23:24:51.925Z,1.50
2022-11-22T23:29:57.108Z,1.50
2022-11-22T23:35:02.298Z,1.50
2022-11-22T23:40:10.766Z,1.50
2022-11-22T23:45:15.948Z,1.50
2022-11-22T23:50:21.407Z,1.50
2022-11-22T23:55:26.888Z,1.50
